sensor_id;sensor_type;location;lat;lon;timestamp;temperature;humidity
12815;DHT22;6472;52.328;13.070;2023-04-15T00:01:15;7.50;99.90
12815;DHT22;6472;52.328;13.070;2023-04-15T00:03:46;7.40;99.90
12815;DHT22;6472;52.328;13.070;2023-04-15T00:06:14;7.40;99.90
12815;DHT22;6472;52.328;13.070;2023-04-15T00:08:43;7.30;99.90
12815;DHT22;6472;52.328;13.070;2023-04-15T00:11:13;7.30;99.90
12815;DHT22;6472;52.328;13.070;2023-04-15T00:13:42;7.40;99.90
12815;DHT22;6472;52.328;13.070;2023-04-15T00:16:11;7.40;99.90
12815;DHT22;6472;52.328;13.070;2023-04-15T00:18:40;7.40;99.90
12815;DHT22;6472;52.328;13.070;2023-04-15T00:21:08;7.40;99.90
12815;DHT22;6472;52.328;13.070;2023-04-15T00:23:36;7.40;99.90
12815;DHT22;6472;52.328;13.070;2023-04-15T00:26:05;7.40;99.90
12815;DHT22;6472;52.328;13.070;2023-04-15T00:28:36;7.40;99.90
12815;DHT22;6472;52.328;13.070;2023-04-15T00:31:04;7.50;99.90
12815;DHT22;6472;52.328;13.070;2023-04-15T00:33:33;7.40;99.90
12815;DHT22;6472;52.328;13.070;2023-04-15T00:36:02;7.60;99.90
12815;DHT22;6472;52.328;13.070;2023-04-15T00:38:32;7.40;99.90
12815;DHT22;6472;52.328;13.070;2023-04-15T00:41:00;7.40;99.90
12815;DHT22;6472;52.328;13.070;2023-04-15T00:43:30;7.40;99.90
12815;DHT22;6472;52.328;13.070;2023-04-15T00:46:00;7.40;99.90
12815;DHT22;6472;52.328;13.070;2023-04-15T00:48:30;7.40;99.90
12815;DHT22;6472;52.328;13.070;2023-04-15T00:50:59;7.40;99.90
12815;DHT22;6472;52.328;13.070;2023-04-15T00:53:28;7.40;99.90
12815;DHT22;6472;52.328;13.070;2023-04-15T00:55:56;7.40;99.90
12815;DHT22;6472;52.328;13.070;2023-04-15T00:58:25;7.40;99.90
12815;DHT22;6472;52.328;13.070;2023-04-15T01:00:55;7.30;99.90
12815;DHT22;6472;52.328;13.070;2023-04-15T01:03:25;7.40;99.90
12815;DHT22;6472;52.328;13.070;2023-04-15T01:05:54;7.60;99.90
12815;DHT22;6472;52.328;13.070;2023-04-15T01:08:26;7.40;99.90
12815;DHT22;6472;52.328;13.070;2023-04-15T01:10:56;7.40;99.90
12815;DHT22;6472;52.328;13.070;2023-04-15T01:13:26;7.40;99.90
12815;DHT22;6472;52.328;13.070;2023-04-15T01:15:55;7.40;99.90
12815;DHT22;6472;52.328;13.070;2023-04-15T01:18:26;7.50;99.90
12815;DHT22;6472;52.328;13.070;2023-04-15T01:20:54;7.40;99.90
12815;DHT22;6472;52.328;13.070;2023-04-15T01:23:23;7.50;99.90
12815;DHT22;6472;52.328;13.070;2023-04-15T01:25:54;7.60;99.90
12815;DHT22;6472;52.328;13.070;2023-04-15T01:28:23;7.60;99.90
12815;DHT22;6472;52.328;13.070;2023-04-15T01:31:05;7.60;99.90
12815;DHT22;6472;52.328;13.070;2023-04-15T01:33:33;7.60;99.90
12815;DHT22;6472;52.328;13.070;2023-04-15T01:36:05;7.60;99.90
12815;DHT22;6472;52.328;13.070;2023-04-15T01:38:37;7.60;99.90
12815;DHT22;6472;52.328;13.070;2023-04-15T01:41:07;7.50;99.90
12815;DHT22;6472;52.328;13.070;2023-04-15T01:43:37;7.60;99.90
12815;DHT22;6472;52.328;13.070;2023-04-15T01:46:06;7.60;99.90
12815;DHT22;6472;52.328;13.070;2023-04-15T01:48:34;7.60;99.90
12815;DHT22;6472;52.328;13.070;2023-04-15T01:51:03;7.60;99.90
12815;DHT22;6472;52.328;13.070;2023-04-15T01:53:31;7.40;99.90
12815;DHT22;6472;52.328;13.070;2023-04-15T01:56:00;7.60;99.90
12815;DHT22;6472;52.328;13.070;2023-04-15T01:58:29;7.70;99.90
12815;DHT22;6472;52.328;13.070;2023-04-15T02:00:59;7.60;99.90
12815;DHT22;6472;52.328;13.070;2023-04-15T02:03:28;7.60;99.90
12815;DHT22;6472;52.328;13.070;2023-04-15T02:05:57;7.40;99.90
12815;DHT22;6472;52.328;13.070;2023-04-15T02:08:25;7.60;99.90
12815;DHT22;6472;52.328;13.070;2023-04-15T02:10:54;7.60;99.90
12815;DHT22;6472;52.328;13.070;2023-04-15T02:13:22;7.50;99.90
12815;DHT22;6472;52.328;13.070;2023-04-15T02:15:53;7.60;99.90
12815;DHT22;6472;52.328;13.070;2023-04-15T02:18:21;7.60;99.90
12815;DHT22;6472;52.328;13.070;2023-04-15T02:20:50;7.60;99.90
12815;DHT22;6472;52.328;13.070;2023-04-15T02:23:18;7.60;99.90
12815;DHT22;6472;52.328;13.070;2023-04-15T02:25:46;7.60;99.90
12815;DHT22;6472;52.328;13.070;2023-04-15T02:28:20;7.60;99.90
12815;DHT22;6472;52.328;13.070;2023-04-15T02:30:48;7.60;99.90
12815;DHT22;6472;52.328;13.070;2023-04-15T02:33:20;7.60;99.90
12815;DHT22;6472;52.328;13.070;2023-04-15T02:35:48;7.60;99.90
12815;DHT22;6472;52.328;13.070;2023-04-15T02:38:16;7.60;99.90
12815;DHT22;6472;52.328;13.070;2023-04-15T02:40:44;7.60;99.90
12815;DHT22;6472;52.328;13.070;2023-04-15T02:43:15;7.60;99.90
12815;DHT22;6472;52.328;13.070;2023-04-15T02:45:44;7.50;99.90
12815;DHT22;6472;52.328;13.070;2023-04-15T02:48:13;7.50;99.90
12815;DHT22;6472;52.328;13.070;2023-04-15T02:50:45;7.50;99.90
12815;DHT22;6472;52.328;13.070;2023-04-15T02:53:13;7.50;99.90
12815;DHT22;6472;52.328;13.070;2023-04-15T02:55:41;7.50;99.90
12815;DHT22;6472;52.328;13.070;2023-04-15T02:58:09;7.50;99.90
12815;DHT22;6472;52.328;13.070;2023-04-15T03:00:37;7.50;99.90
12815;DHT22;6472;52.328;13.070;2023-04-15T03:03:06;7.50;99.90
12815;DHT22;6472;52.328;13.070;2023-04-15T03:05:35;7.50;99.90
12815;DHT22;6472;52.328;13.070;2023-04-15T03:08:06;7.50;99.90
12815;DHT22;6472;52.328;13.070;2023-04-15T03:10:34;7.50;99.90
12815;DHT22;6472;52.328;13.070;2023-04-15T03:13:02;7.50;99.90
12815;DHT22;6472;52.328;13.070;2023-04-15T03:15:31;7.50;99.90
12815;DHT22;6472;52.328;13.070;2023-04-15T03:17:59;7.50;99.90
12815;DHT22;6472;52.328;13.070;2023-04-15T03:20:27;7.50;99.90
12815;DHT22;6472;52.328;13.070;2023-04-15T03:22:56;7.50;99.90
12815;DHT22;6472;52.328;13.070;2023-04-15T03:25:25;7.50;99.90
12815;DHT22;6472;52.328;13.070;2023-04-15T03:27:53;7.60;99.90
12815;DHT22;6472;52.328;13.070;2023-04-15T03:30:21;7.60;99.90
12815;DHT22;6472;52.328;13.070;2023-04-15T03:32:49;7.60;99.90
12815;DHT22;6472;52.328;13.070;2023-04-15T03:35:17;7.60;99.90
12815;DHT22;6472;52.328;13.070;2023-04-15T03:37:45;7.60;99.90
12815;DHT22;6472;52.328;13.070;2023-04-15T03:40:14;7.60;99.90
12815;DHT22;6472;52.328;13.070;2023-04-15T03:42:44;7.60;99.90
12815;DHT22;6472;52.328;13.070;2023-04-15T03:45:12;7.60;99.90
12815;DHT22;6472;52.328;13.070;2023-04-15T03:47:40;7.60;99.90
12815;DHT22;6472;52.328;13.070;2023-04-15T03:50:09;7.60;99.90
12815;DHT22;6472;52.328;13.070;2023-04-15T03:52:37;7.60;99.90
12815;DHT22;6472;52.328;13.070;2023-04-15T03:55:06;7.60;99.90
12815;DHT22;6472;52.328;13.070;2023-04-15T03:57:35;7.60;99.90
12815;DHT22;6472;52.328;13.070;2023-04-15T04:00:08;7.60;99.90
12815;DHT22;6472;52.328;13.070;2023-04-15T04:02:36;7.70;99.90
12815;DHT22;6472;52.328;13.070;2023-04-15T04:05:05;7.70;99.90
12815;DHT22;6472;52.328;13.070;2023-04-15T04:07:33;7.70;99.90
12815;DHT22;6472;52.328;13.070;2023-04-15T04:10:03;7.80;99.90
12815;DHT22;6472;52.328;13.070;2023-04-15T04:12:31;7.70;99.90
12815;DHT22;6472;52.328;13.070;2023-04-15T04:14:59;7.70;99.90
12815;DHT22;6472;52.328;13.070;2023-04-15T04:17:28;7.70;99.90
12815;DHT22;6472;52.328;13.070;2023-04-15T04:19:57;7.80;99.90
12815;DHT22;6472;52.328;13.070;2023-04-15T04:22:25;7.80;99.90
12815;DHT22;6472;52.328;13.070;2023-04-15T04:24:53;7.80;99.90
12815;DHT22;6472;52.328;13.070;2023-04-15T04:27:21;7.80;99.90
12815;DHT22;6472;52.328;13.070;2023-04-15T04:29:49;7.80;99.90
12815;DHT22;6472;52.328;13.070;2023-04-15T04:32:17;7.80;99.90
12815;DHT22;6472;52.328;13.070;2023-04-15T04:34:46;7.80;99.90
12815;DHT22;6472;52.328;13.070;2023-04-15T04:37:14;7.80;99.90
12815;DHT22;6472;52.328;13.070;2023-04-15T04:39:43;7.80;99.90
12815;DHT22;6472;52.328;13.070;2023-04-15T04:42:11;7.80;99.90
12815;DHT22;6472;52.328;13.070;2023-04-15T04:44:39;7.80;99.90
12815;DHT22;6472;52.328;13.070;2023-04-15T04:47:07;7.80;99.90
12815;DHT22;6472;52.328;13.070;2023-04-15T04:49:35;7.80;99.90
12815;DHT22;6472;52.328;13.070;2023-04-15T04:52:05;7.70;99.90
12815;DHT22;6472;52.328;13.070;2023-04-15T04:54:33;7.80;99.90
12815;DHT22;6472;52.328;13.070;2023-04-15T04:57:01;7.90;99.90
12815;DHT22;6472;52.328;13.070;2023-04-15T04:59:29;7.90;99.90
12815;DHT22;6472;52.328;13.070;2023-04-15T05:01:57;7.90;99.90
12815;DHT22;6472;52.328;13.070;2023-04-15T05:04:25;7.90;99.90
12815;DHT22;6472;52.328;13.070;2023-04-15T05:06:54;7.90;99.90
12815;DHT22;6472;52.328;13.070;2023-04-15T05:09:23;7.90;99.90
12815;DHT22;6472;52.328;13.070;2023-04-15T05:11:51;7.90;99.90
12815;DHT22;6472;52.328;13.070;2023-04-15T05:14:19;7.90;99.90
12815;DHT22;6472;52.328;13.070;2023-04-15T05:16:49;8.00;99.90
12815;DHT22;6472;52.328;13.070;2023-04-15T05:19:17;8.00;99.90
12815;DHT22;6472;52.328;13.070;2023-04-15T05:21:45;7.90;99.90
12815;DHT22;6472;52.328;13.070;2023-04-15T05:24:13;8.00;99.90
12815;DHT22;6472;52.328;13.070;2023-04-15T05:26:42;7.90;99.90
12815;DHT22;6472;52.328;13.070;2023-04-15T05:29:10;8.00;99.90
12815;DHT22;6472;52.328;13.070;2023-04-15T05:31:38;8.00;99.90
12815;DHT22;6472;52.328;13.070;2023-04-15T05:34:07;8.10;99.90
12815;DHT22;6472;52.328;13.070;2023-04-15T05:36:35;8.00;99.90
12815;DHT22;6472;52.328;13.070;2023-04-15T05:39:04;8.10;99.90
12815;DHT22;6472;52.328;13.070;2023-04-15T05:41:31;8.10;99.90
12815;DHT22;6472;52.328;13.070;2023-04-15T05:44:01;8.10;99.90
12815;DHT22;6472;52.328;13.070;2023-04-15T05:46:29;8.10;99.90
12815;DHT22;6472;52.328;13.070;2023-04-15T05:48:57;8.20;99.90
12815;DHT22;6472;52.328;13.070;2023-04-15T05:51:26;8.20;99.90
12815;DHT22;6472;52.328;13.070;2023-04-15T05:53:54;8.20;99.90
12815;DHT22;6472;52.328;13.070;2023-04-15T05:56:22;8.30;99.90
12815;DHT22;6472;52.328;13.070;2023-04-15T05:58:52;8.40;99.90
12815;DHT22;6472;52.328;13.070;2023-04-15T06:01:22;8.50;99.90
12815;DHT22;6472;52.328;13.070;2023-04-15T06:03:50;8.60;99.90
12815;DHT22;6472;52.328;13.070;2023-04-15T06:06:18;8.70;99.90
12815;DHT22;6472;52.328;13.070;2023-04-15T06:08:46;8.80;99.90
12815;DHT22;6472;52.328;13.070;2023-04-15T06:11:14;8.80;99.90
12815;DHT22;6472;52.328;13.070;2023-04-15T06:13:42;8.90;99.90
12815;DHT22;6472;52.328;13.070;2023-04-15T06:16:11;8.90;99.90
12815;DHT22;6472;52.328;13.070;2023-04-15T06:18:40;9.00;99.90
12815;DHT22;6472;52.328;13.070;2023-04-15T06:21:09;9.00;99.90
12815;DHT22;6472;52.328;13.070;2023-04-15T06:23:37;9.10;99.90
12815;DHT22;6472;52.328;13.070;2023-04-15T06:26:06;9.20;99.90
12815;DHT22;6472;52.328;13.070;2023-04-15T06:28:34;9.30;99.90
12815;DHT22;6472;52.328;13.070;2023-04-15T06:31:03;9.30;99.90
12815;DHT22;6472;52.328;13.070;2023-04-15T06:33:31;9.40;99.90
12815;DHT22;6472;52.328;13.070;2023-04-15T06:36:00;9.50;99.90
12815;DHT22;6472;52.328;13.070;2023-04-15T06:38:28;9.50;99.90
12815;DHT22;6472;52.328;13.070;2023-04-15T06:40:56;9.70;99.90
12815;DHT22;6472;52.328;13.070;2023-04-15T06:43:24;9.80;99.90
12815;DHT22;6472;52.328;13.070;2023-04-15T06:45:52;9.90;99.90
12815;DHT22;6472;52.328;13.070;2023-04-15T06:48:20;10.00;99.90
12815;DHT22;6472;52.328;13.070;2023-04-15T06:50:49;10.20;99.90
12815;DHT22;6472;52.328;13.070;2023-04-15T06:53:18;10.40;99.90
12815;DHT22;6472;52.328;13.070;2023-04-15T06:55:46;10.40;99.90
12815;DHT22;6472;52.328;13.070;2023-04-15T06:58:14;10.40;99.90
12815;DHT22;6472;52.328;13.070;2023-04-15T07:00:42;10.50;99.90
12815;DHT22;6472;52.328;13.070;2023-04-15T07:03:11;10.50;99.90
12815;DHT22;6472;52.328;13.070;2023-04-15T07:05:40;10.50;99.90
12815;DHT22;6472;52.328;13.070;2023-04-15T07:08:09;10.50;99.90
12815;DHT22;6472;52.328;13.070;2023-04-15T07:10:38;10.50;99.90
12815;DHT22;6472;52.328;13.070;2023-04-15T07:13:07;10.50;99.90
12815;DHT22;6472;52.328;13.070;2023-04-15T07:15:35;10.50;99.90
12815;DHT22;6472;52.328;13.070;2023-04-15T07:18:03;10.60;99.90
12815;DHT22;6472;52.328;13.070;2023-04-15T07:20:31;10.60;99.90
12815;DHT22;6472;52.328;13.070;2023-04-15T07:22:59;10.70;99.90
12815;DHT22;6472;52.328;13.070;2023-04-15T07:25:27;10.70;99.90
12815;DHT22;6472;52.328;13.070;2023-04-15T07:27:57;10.80;99.90
12815;DHT22;6472;52.328;13.070;2023-04-15T07:30:25;10.80;99.90
12815;DHT22;6472;52.328;13.070;2023-04-15T07:32:53;10.80;99.90
12815;DHT22;6472;52.328;13.070;2023-04-15T07:35:21;10.70;99.90
12815;DHT22;6472;52.328;13.070;2023-04-15T07:37:51;10.60;99.90
12815;DHT22;6472;52.328;13.070;2023-04-15T07:40:19;10.60;99.90
12815;DHT22;6472;52.328;13.070;2023-04-15T07:42:48;10.60;99.90
12815;DHT22;6472;52.328;13.070;2023-04-15T07:45:18;10.50;99.90
12815;DHT22;6472;52.328;13.070;2023-04-15T07:47:46;10.50;99.90
12815;DHT22;6472;52.328;13.070;2023-04-15T07:50:15;10.50;99.90
12815;DHT22;6472;52.328;13.070;2023-04-15T07:52:43;10.50;99.90
12815;DHT22;6472;52.328;13.070;2023-04-15T07:55:11;10.50;99.90
12815;DHT22;6472;52.328;13.070;2023-04-15T07:57:39;10.60;99.90
12815;DHT22;6472;52.328;13.070;2023-04-15T08:00:08;10.60;99.90
12815;DHT22;6472;52.328;13.070;2023-04-15T08:02:38;10.60;99.90
12815;DHT22;6472;52.328;13.070;2023-04-15T08:05:08;10.60;99.90
12815;DHT22;6472;52.328;13.070;2023-04-15T08:07:37;10.40;99.90
12815;DHT22;6472;52.328;13.070;2023-04-15T08:10:06;10.50;99.90
12815;DHT22;6472;52.328;13.070;2023-04-15T08:12:34;10.30;99.90
12815;DHT22;6472;52.328;13.070;2023-04-15T08:15:03;10.30;99.90
12815;DHT22;6472;52.328;13.070;2023-04-15T08:17:31;10.40;99.90
12815;DHT22;6472;52.328;13.070;2023-04-15T08:20:02;10.30;99.90
12815;DHT22;6472;52.328;13.070;2023-04-15T08:22:31;10.30;99.90
12815;DHT22;6472;52.328;13.070;2023-04-15T08:25:00;10.30;99.90
12815;DHT22;6472;52.328;13.070;2023-04-15T08:27:28;10.30;99.90
12815;DHT22;6472;52.328;13.070;2023-04-15T08:29:56;10.30;99.90
12815;DHT22;6472;52.328;13.070;2023-04-15T08:32:24;10.20;99.90
12815;DHT22;6472;52.328;13.070;2023-04-15T08:34:52;10.20;99.90
12815;DHT22;6472;52.328;13.070;2023-04-15T08:37:22;10.10;99.90
12815;DHT22;6472;52.328;13.070;2023-04-15T08:39:50;10.10;99.90
12815;DHT22;6472;52.328;13.070;2023-04-15T08:42:22;10.10;99.90
12815;DHT22;6472;52.328;13.070;2023-04-15T08:44:54;10.10;99.90
12815;DHT22;6472;52.328;13.070;2023-04-15T08:47:25;10.10;99.90
12815;DHT22;6472;52.328;13.070;2023-04-15T08:49:57;10.10;99.90
12815;DHT22;6472;52.328;13.070;2023-04-15T08:52:26;10.00;99.90
12815;DHT22;6472;52.328;13.070;2023-04-15T08:54:56;9.90;99.90
12815;DHT22;6472;52.328;13.070;2023-04-15T08:57:26;9.90;99.90
12815;DHT22;6472;52.328;13.070;2023-04-15T08:59:55;9.90;99.90
12815;DHT22;6472;52.328;13.070;2023-04-15T09:02:24;9.90;99.90
12815;DHT22;6472;52.328;13.070;2023-04-15T09:04:53;9.80;99.90
12815;DHT22;6472;52.328;13.070;2023-04-15T09:07:22;9.90;99.90
12815;DHT22;6472;52.328;13.070;2023-04-15T09:09:51;9.80;99.90
12815;DHT22;6472;52.328;13.070;2023-04-15T09:12:19;9.80;99.90
12815;DHT22;6472;52.328;13.070;2023-04-15T09:14:48;9.80;99.90
12815;DHT22;6472;52.328;13.070;2023-04-15T09:17:18;9.80;99.90
12815;DHT22;6472;52.328;13.070;2023-04-15T09:19:47;9.90;99.90
12815;DHT22;6472;52.328;13.070;2023-04-15T09:22:15;9.90;99.90
12815;DHT22;6472;52.328;13.070;2023-04-15T09:24:43;9.90;99.90
12815;DHT22;6472;52.328;13.070;2023-04-15T09:27:15;9.90;99.90
12815;DHT22;6472;52.328;13.070;2023-04-15T09:29:43;9.90;99.90
12815;DHT22;6472;52.328;13.070;2023-04-15T09:32:12;9.80;99.90
12815;DHT22;6472;52.328;13.070;2023-04-15T09:34:41;9.90;99.90
12815;DHT22;6472;52.328;13.070;2023-04-15T09:37:10;9.90;99.90
12815;DHT22;6472;52.328;13.070;2023-04-15T09:39:57;10.00;99.90
12815;DHT22;6472;52.328;13.070;2023-04-15T09:42:26;9.90;99.90
12815;DHT22;6472;52.328;13.070;2023-04-15T09:44:54;9.90;99.90
12815;DHT22;6472;52.328;13.070;2023-04-15T09:47:27;9.90;99.90
12815;DHT22;6472;52.328;13.070;2023-04-15T09:49:56;9.90;99.90
12815;DHT22;6472;52.328;13.070;2023-04-15T09:52:24;10.00;99.90
12815;DHT22;6472;52.328;13.070;2023-04-15T09:54:53;9.90;99.90
12815;DHT22;6472;52.328;13.070;2023-04-15T09:57:22;9.90;99.90
12815;DHT22;6472;52.328;13.070;2023-04-15T09:59:52;9.90;99.90
12815;DHT22;6472;52.328;13.070;2023-04-15T10:02:20;10.00;99.90
12815;DHT22;6472;52.328;13.070;2023-04-15T10:04:49;9.90;99.90
12815;DHT22;6472;52.328;13.070;2023-04-15T10:07:20;9.90;99.90
12815;DHT22;6472;52.328;13.070;2023-04-15T10:09:49;9.90;99.90
12815;DHT22;6472;52.328;13.070;2023-04-15T10:12:18;9.90;99.90
12815;DHT22;6472;52.328;13.070;2023-04-15T10:14:49;9.90;99.90
12815;DHT22;6472;52.328;13.070;2023-04-15T10:17:22;9.90;99.90
12815;DHT22;6472;52.328;13.070;2023-04-15T10:19:53;9.90;99.90
12815;DHT22;6472;52.328;13.070;2023-04-15T10:22:22;9.90;99.90
12815;DHT22;6472;52.328;13.070;2023-04-15T10:24:50;9.90;99.90
12815;DHT22;6472;52.328;13.070;2023-04-15T10:27:19;9.90;99.90
12815;DHT22;6472;52.328;13.070;2023-04-15T10:29:49;9.90;99.90
12815;DHT22;6472;52.328;13.070;2023-04-15T10:32:18;9.90;99.90
12815;DHT22;6472;52.328;13.070;2023-04-15T10:34:49;9.90;99.90
12815;DHT22;6472;52.328;13.070;2023-04-15T10:37:21;9.90;99.90
12815;DHT22;6472;52.328;13.070;2023-04-15T10:39:49;9.90;99.90
12815;DHT22;6472;52.328;13.070;2023-04-15T10:42:18;9.90;99.90
12815;DHT22;6472;52.328;13.070;2023-04-15T10:44:49;9.90;99.90
12815;DHT22;6472;52.328;13.070;2023-04-15T10:47:19;10.00;99.90
12815;DHT22;6472;52.328;13.070;2023-04-15T10:49:50;9.90;99.90
12815;DHT22;6472;52.328;13.070;2023-04-15T10:52:23;9.90;99.90
12815;DHT22;6472;52.328;13.070;2023-04-15T10:55:01;10.00;99.90
12815;DHT22;6472;52.328;13.070;2023-04-15T10:57:34;10.10;99.90
12815;DHT22;6472;52.328;13.070;2023-04-15T11:00:09;10.20;99.90
12815;DHT22;6472;52.328;13.070;2023-04-15T11:02:43;10.10;99.90
12815;DHT22;6472;52.328;13.070;2023-04-15T11:05:14;10.20;99.90
12815;DHT22;6472;52.328;13.070;2023-04-15T11:07:53;10.20;99.90
12815;DHT22;6472;52.328;13.070;2023-04-15T11:13:24;10.40;99.90
12815;DHT22;6472;52.328;13.070;2023-04-15T11:15:59;10.40;99.90
12815;DHT22;6472;52.328;13.070;2023-04-15T11:18:29;10.30;99.90
12815;DHT22;6472;52.328;13.070;2023-04-15T11:21:02;10.30;99.90
12815;DHT22;6472;52.328;13.070;2023-04-15T11:23:33;10.30;99.90
12815;DHT22;6472;52.328;13.070;2023-04-15T11:26:02;10.40;99.90
12815;DHT22;6472;52.328;13.070;2023-04-15T11:28:35;10.40;99.90
12815;DHT22;6472;52.328;13.070;2023-04-15T11:31:07;10.40;99.90
12815;DHT22;6472;52.328;13.070;2023-04-15T11:33:38;10.50;99.90
12815;DHT22;6472;52.328;13.070;2023-04-15T11:36:13;10.50;99.90
12815;DHT22;6472;52.328;13.070;2023-04-15T11:38:45;10.50;99.90
12815;DHT22;6472;52.328;13.070;2023-04-15T11:41:13;10.60;99.90
12815;DHT22;6472;52.328;13.070;2023-04-15T11:43:42;10.50;99.90
12815;DHT22;6472;52.328;13.070;2023-04-15T11:46:10;10.40;99.90
12815;DHT22;6472;52.328;13.070;2023-04-15T11:48:42;10.50;99.90
12815;DHT22;6472;52.328;13.070;2023-04-15T11:51:11;10.40;99.90
12815;DHT22;6472;52.328;13.070;2023-04-15T11:53:42;10.60;99.90
12815;DHT22;6472;52.328;13.070;2023-04-15T11:56:16;10.40;99.90
12815;DHT22;6472;52.328;13.070;2023-04-15T11:58:44;10.40;99.90
12815;DHT22;6472;52.328;13.070;2023-04-15T12:01:12;10.40;99.90
12815;DHT22;6472;52.328;13.070;2023-04-15T12:03:42;10.30;99.90
12815;DHT22;6472;52.328;13.070;2023-04-15T12:06:15;10.40;99.90
12815;DHT22;6472;52.328;13.070;2023-04-15T12:08:56;10.40;99.90
12815;DHT22;6472;52.328;13.070;2023-04-15T12:11:42;10.40;99.90
12815;DHT22;6472;52.328;13.070;2023-04-15T12:14:23;10.40;99.90
12815;DHT22;6472;52.328;13.070;2023-04-15T12:16:52;10.30;99.90
12815;DHT22;6472;52.328;13.070;2023-04-15T12:19:25;10.40;99.90
12815;DHT22;6472;52.328;13.070;2023-04-15T12:21:57;10.40;99.90
12815;DHT22;6472;52.328;13.070;2023-04-15T12:24:30;10.50;99.90
12815;DHT22;6472;52.328;13.070;2023-04-15T12:27:01;10.60;99.90
12815;DHT22;6472;52.328;13.070;2023-04-15T12:29:31;10.60;99.90
12815;DHT22;6472;52.328;13.070;2023-04-15T12:32:04;10.60;99.90
12815;DHT22;6472;52.328;13.070;2023-04-15T12:34:34;10.70;99.90
12815;DHT22;6472;52.328;13.070;2023-04-15T12:37:04;10.70;99.90
12815;DHT22;6472;52.328;13.070;2023-04-15T12:39:37;10.70;99.90
12815;DHT22;6472;52.328;13.070;2023-04-15T12:42:05;10.70;99.90
12815;DHT22;6472;52.328;13.070;2023-04-15T12:44:34;10.80;99.90
12815;DHT22;6472;52.328;13.070;2023-04-15T12:47:02;10.80;99.90
12815;DHT22;6472;52.328;13.070;2023-04-15T12:49:31;10.90;99.90
12815;DHT22;6472;52.328;13.070;2023-04-15T12:52:00;10.90;99.90
12815;DHT22;6472;52.328;13.070;2023-04-15T12:54:28;11.00;99.90
12815;DHT22;6472;52.328;13.070;2023-04-15T12:56:58;11.00;99.90
12815;DHT22;6472;52.328;13.070;2023-04-15T12:59:27;11.10;99.90
12815;DHT22;6472;52.328;13.070;2023-04-15T13:01:55;11.20;99.90
12815;DHT22;6472;52.328;13.070;2023-04-15T13:04:23;11.20;99.90
12815;DHT22;6472;52.328;13.070;2023-04-15T13:06:56;11.40;99.90
12815;DHT22;6472;52.328;13.070;2023-04-15T13:09:24;11.50;99.90
12815;DHT22;6472;52.328;13.070;2023-04-15T13:11:52;11.50;99.90
12815;DHT22;6472;52.328;13.070;2023-04-15T13:14:23;11.50;99.90
12815;DHT22;6472;52.328;13.070;2023-04-15T13:16:51;11.40;99.90
12815;DHT22;6472;52.328;13.070;2023-04-15T13:19:19;11.40;99.90
12815;DHT22;6472;52.328;13.070;2023-04-15T13:21:47;11.40;99.90
12815;DHT22;6472;52.328;13.070;2023-04-15T13:24:16;11.30;99.90
12815;DHT22;6472;52.328;13.070;2023-04-15T13:26:44;11.10;99.90
12815;DHT22;6472;52.328;13.070;2023-04-15T13:29:15;11.10;99.90
12815;DHT22;6472;52.328;13.070;2023-04-15T13:31:44;11.20;99.90
12815;DHT22;6472;52.328;13.070;2023-04-15T13:34:12;11.20;99.90
12815;DHT22;6472;52.328;13.070;2023-04-15T13:36:40;11.20;99.90
12815;DHT22;6472;52.328;13.070;2023-04-15T13:39:08;11.20;99.90
12815;DHT22;6472;52.328;13.070;2023-04-15T13:41:36;11.20;99.90
12815;DHT22;6472;52.328;13.070;2023-04-15T13:44:05;11.20;99.90
12815;DHT22;6472;52.328;13.070;2023-04-15T13:46:33;11.20;99.90
12815;DHT22;6472;52.328;13.070;2023-04-15T13:49:02;11.20;99.90
12815;DHT22;6472;52.328;13.070;2023-04-15T13:51:31;11.20;99.90
12815;DHT22;6472;52.328;13.070;2023-04-15T13:54:01;11.20;99.90
12815;DHT22;6472;52.328;13.070;2023-04-15T13:56:30;11.20;99.90
12815;DHT22;6472;52.328;13.070;2023-04-15T13:58:59;11.10;99.90
12815;DHT22;6472;52.328;13.070;2023-04-15T14:01:30;11.10;99.90
12815;DHT22;6472;52.328;13.070;2023-04-15T14:03:58;11.00;99.90
12815;DHT22;6472;52.328;13.070;2023-04-15T14:06:29;11.00;99.90
12815;DHT22;6472;52.328;13.070;2023-04-15T14:08:57;11.00;99.90
12815;DHT22;6472;52.328;13.070;2023-04-15T14:11:26;11.00;99.90
12815;DHT22;6472;52.328;13.070;2023-04-15T14:13:54;11.00;99.90
12815;DHT22;6472;52.328;13.070;2023-04-15T14:16:22;10.90;99.90
12815;DHT22;6472;52.328;13.070;2023-04-15T14:18:50;10.90;99.90
12815;DHT22;6472;52.328;13.070;2023-04-15T14:21:18;10.80;99.90
12815;DHT22;6472;52.328;13.070;2023-04-15T14:23:48;10.80;99.90
12815;DHT22;6472;52.328;13.070;2023-04-15T14:26:16;10.90;99.90
12815;DHT22;6472;52.328;13.070;2023-04-15T14:28:44;10.80;99.90
12815;DHT22;6472;52.328;13.070;2023-04-15T14:31:12;10.80;99.90
12815;DHT22;6472;52.328;13.070;2023-04-15T14:33:40;10.80;99.90
12815;DHT22;6472;52.328;13.070;2023-04-15T14:36:11;10.70;99.90
12815;DHT22;6472;52.328;13.070;2023-04-15T14:38:39;10.70;99.90
12815;DHT22;6472;52.328;13.070;2023-04-15T14:41:09;10.70;99.90
12815;DHT22;6472;52.328;13.070;2023-04-15T14:43:38;10.60;99.90
12815;DHT22;6472;52.328;13.070;2023-04-15T14:46:06;10.70;99.90
12815;DHT22;6472;52.328;13.070;2023-04-15T14:48:34;10.60;99.90
12815;DHT22;6472;52.328;13.070;2023-04-15T14:51:02;10.60;99.90
12815;DHT22;6472;52.328;13.070;2023-04-15T14:53:31;10.60;99.90
12815;DHT22;6472;52.328;13.070;2023-04-15T14:55:59;10.60;99.90
12815;DHT22;6472;52.328;13.070;2023-04-15T14:58:28;10.50;99.90
12815;DHT22;6472;52.328;13.070;2023-04-15T15:00:56;10.50;99.90
12815;DHT22;6472;52.328;13.070;2023-04-15T15:03:24;10.60;99.90
12815;DHT22;6472;52.328;13.070;2023-04-15T15:05:52;10.60;99.90
12815;DHT22;6472;52.328;13.070;2023-04-15T15:08:21;10.60;99.90
12815;DHT22;6472;52.328;13.070;2023-04-15T15:10:49;10.60;99.90
12815;DHT22;6472;52.328;13.070;2023-04-15T15:13:17;10.60;99.90
12815;DHT22;6472;52.328;13.070;2023-04-15T15:15:47;10.50;99.90
12815;DHT22;6472;52.328;13.070;2023-04-15T15:18:16;10.50;99.90
12815;DHT22;6472;52.328;13.070;2023-04-15T15:20:45;10.60;99.90
12815;DHT22;6472;52.328;13.070;2023-04-15T15:23:13;10.50;99.90
12815;DHT22;6472;52.328;13.070;2023-04-15T15:25:41;10.40;99.90
12815;DHT22;6472;52.328;13.070;2023-04-15T15:28:09;10.40;99.90
12815;DHT22;6472;52.328;13.070;2023-04-15T15:30:37;10.40;99.90
12815;DHT22;6472;52.328;13.070;2023-04-15T15:33:06;10.40;99.90
12815;DHT22;6472;52.328;13.070;2023-04-15T15:35:35;10.40;99.90
12815;DHT22;6472;52.328;13.070;2023-04-15T15:38:03;10.30;99.90
12815;DHT22;6472;52.328;13.070;2023-04-15T15:40:32;10.30;99.90
12815;DHT22;6472;52.328;13.070;2023-04-15T15:43:00;10.20;99.90
12815;DHT22;6472;52.328;13.070;2023-04-15T15:45:28;10.20;99.90
12815;DHT22;6472;52.328;13.070;2023-04-15T15:47:56;10.10;99.90
12815;DHT22;6472;52.328;13.070;2023-04-15T15:50:26;10.20;99.90
12815;DHT22;6472;52.328;13.070;2023-04-15T15:52:54;10.20;99.90
12815;DHT22;6472;52.328;13.070;2023-04-15T15:55:24;10.20;99.90